Time;durP1;ratioP1;P1;durP2;ratioP2;P2;SDS_P1;SDS_P2;PMS_P1;PMS_P2;Temp;Humidity;BMP_temperature;BMP_pressure;BME280_temperature;BME280_humidity;BME280_pressure;Samples;Min_cycle;Max_cycle;Signal;HPM_P1;HPM_P2
2022/07/11 00:00:23;;;;;;;5.22;1.60;;;;;;;20.62;54.70;102507.75;5213634;28;20428;-41
2022/07/11 00:02:56;;;;;;;4.18;1.40;;;;;;;20.62;54.64;102499.72;5216734;28;20469;-40
2022/07/11 00:05:29;;;;;;;8.73;2.28;;;;;;;20.66;54.62;102516.31;5225147;28;20776;-40
2022/07/11 00:08:02;;;;;;;4.22;1.55;;;;;;;20.54;54.99;102513.19;5215356;28;20624;-40
2022/07/11 00:10:34;;;;;;;7.87;1.50;;;;;;;20.50;55.11;102511.81;5219440;28;20475;-45
2022/07/11 00:13:07;;;;;;;3.20;1.90;;;;;;;20.37;55.21;102492.75;5211894;28;20450;-52
2022/07/11 00:15:41;;;;;;;6.05;1.85;;;;;;;20.37;55.25;102500.81;5216591;28;20428;-40
2022/07/11 00:18:14;;;;;;;5.25;1.92;;;;;;;20.37;55.22;102492.75;5215480;28;20420;-54
2022/07/11 00:20:46;;;;;;;4.77;1.60;;;;;;;20.25;55.22;102476.19;5210882;28;20753;-42
2022/07/11 00:23:19;;;;;;;8.63;1.70;;;;;;;20.34;55.24;102490.44;5217443;28;20418;-42
2022/07/11 00:25:52;;;;;;;6.10;1.80;;;;;;;20.38;55.29;102491.78;5215429;28;20430;-45
2022/07/11 00:28:25;;;;;;;4.93;1.83;;;;;;;20.37;55.31;102487.41;5212586;28;20502;-45
2022/07/11 00:30:59;;;;;;;5.82;2.08;;;;;;;20.49;55.06;102488.69;5218154;28;20451;-43
2022/07/11 00:33:32;;;;;;;7.20;2.00;;;;;;;20.49;55.22;102494.06;5214990;28;20473;-42
2022/07/11 00:36:05;;;;;;;5.15;2.00;;;;;;;20.30;55.34;102479.22;5217164;28;20505;-40
2022/07/11 00:38:38;;;;;;;4.57;1.50;;;;;;;20.30;55.62;102484.56;5209929;28;20578;-41
2022/07/11 00:41:10;;;;;;;4.50;1.60;;;;;;;20.25;55.40;102478.88;5213061;28;20408;-41
2022/07/11 00:43:43;;;;;;;6.38;1.40;;;;;;;20.21;55.54;102465.00;5193227;28;20832;-41
2022/07/11 00:46:17;;;;;;;4.55;1.73;;;;;;;20.35;55.51;102492.13;5214579;28;20501;-39
2022/07/11 00:48:51;;;;;;;3.65;1.70;;;;;;;20.35;55.42;102484.06;5214940;28;20427;-45
2022/07/11 00:51:25;;;;;;;5.80;1.65;;;;;;;20.26;55.52;102478.72;5214413;28;20447;-45
2022/07/11 00:53:59;;;;;;;5.47;1.50;;;;;;;20.27;55.62;102485.75;5215461;28;20460;-40
2022/07/11 00:56:32;;;;;;;7.15;1.90;;;;;;;20.17;55.80;102479.75;5213743;28;20421;-45
2022/07/11 00:59:05;;;;;;;7.03;1.83;;;;;;;19.96;56.05;102466.09;5211546;28;20514;-39
2022/07/11 01:01:40;;;;;;;4.47;1.50;;;;;;;20.01;56.15;102480.66;5208080;28;20400;-40
2022/07/11 01:04:16;;;;;;;7.93;1.77;;;;;;;20.00;55.97;102480.81;5212960;28;20424;-39
2022/07/11 01:06:49;;;;;;;7.07;2.05;;;;;;;19.97;56.14;102467.75;5209308;28;20432;-45
2022/07/11 01:09:21;;;;;;;8.32;1.70;;;;;;;20.06;56.12;102472.09;5219451;28;20906;-39
2022/07/11 01:11:54;;;;;;;4.90;1.70;;;;;;;19.91;56.10;102452.34;5214137;28;20525;-40
2022/07/11 01:14:29;;;;;;;7.38;2.63;;;;;;;20.14;56.02;102479.28;5221036;28;20618;-39
2022/07/11 01:17:04;;;;;;;4.15;1.70;;;;;;;20.23;55.98;102492.50;5216582;28;20415;-40
2022/07/11 01:19:37;;;;;;;5.35;1.70;;;;;;;20.27;56.11;102493.81;5214121;28;20440;-47
2022/07/11 01:22:10;;;;;;;6.20;1.80;;;;;;;20.28;56.14;102491.94;5209768;28;20429;-46
2022/07/11 01:24:45;;;;;;;6.50;2.03;;;;;;;20.30;56.00;102495.31;5214605;28;20517;-39
2022/07/11 01:27:18;;;;;;;5.93;1.65;;;;;;;20.34;56.04;102485.06;5209736;28;20433;-42
2022/07/11 01:29:50;;;;;;;6.90;1.73;;;;;;;20.39;55.90;102494.25;5216560;28;20412;-44
2022/07/11 01:32:23;;;;;;;6.57;1.92;;;;;;;20.38;55.93;102484.56;5213952;28;20437;-40
2022/07/11 01:34:56;;;;;;;9.15;1.70;;;;;;;20.27;56.01;102476.88;5219993;28;20814;-41
2022/07/11 01:37:29;;;;;;;5.60;1.80;;;;;;;20.44;55.98;102491.91;5213222;28;21054;-40
2022/07/11 01:40:03;;;;;;;4.68;1.85;;;;;;;20.42;56.04;102487.72;5221238;28;20421;-39
2022/07/11 01:42:36;;;;;;;5.22;1.75;;;;;;;20.44;56.04;102491.03;5221904;28;20541;-39
2022/07/11 01:45:11;;;;;;;3.78;1.80;;;;;;;20.04;56.07;102432.03;5214690;28;20497;-40
2022/07/11 01:47:43;;;;;;;3.40;1.75;;;;;;;20.31;56.34;102490.78;5219437;28;20422;-41
2022/07/11 01:50:16;;;;;;;3.60;1.60;;;;;;;20.30;56.31;102486.44;5223840;28;20446;-39
2022/07/11 01:52:48;;;;;;;3.38;1.60;;;;;;;20.24;56.34;102480.75;5223612;28;20805;-40
2022/07/11 01:55:23;;;;;;;4.80;1.90;;;;;;;20.18;56.46;102480.59;5225598;28;20423;-42
2022/07/11 01:57:55;;;;;;;6.82;2.25;;;;;;;20.18;56.50;102481.44;5226122;27;20423;-39
2022/07/11 02:00:28;;;;;;;3.88;1.88;;;;;;;20.23;56.27;102483.59;5228637;28;20925;-39
2022/07/11 02:03:01;;;;;;;3.97;1.73;;;;;;;20.04;56.31;102452.66;5228790;28;20420;-55
2022/07/11 02:05:33;;;;;;;3.60;1.70;;;;;;;20.25;56.26;102492.31;5227358;28;20453;-43
2022/07/11 02:08:14;;;;;;;5.95;1.50;;;;;;;20.22;56.30;102481.91;5231470;28;20417;-40
2022/07/11 02:10:50;;;;;;;4.35;1.55;;;;;;;20.14;56.28;102469.38;5216589;28;20453;-39
2022/07/11 02:13:24;;;;;;;3.80;2.08;;;;;;;20.23;56.49;102484.44;5228637;28;20435;-39
2022/07/11 02:15:57;;;;;;;5.07;2.17;;;;;;;20.11;56.44;102461.69;5227775;28;20430;-40
2022/07/11 02:18:31;;;;;;;6.78;2.28;;;;;;;20.21;56.39;102480.25;5226258;28;20443;-39
2022/07/11 02:21:06;;;;;;;4.47;1.92;;;;;;;20.26;56.25;102477.91;5227738;28;20411;-39
2022/07/11 02:23:39;;;;;;;4.57;1.90;;;;;;;20.23;56.47;102473.72;5217683;28;20576;-40
2022/07/11 02:26:13;;;;;;;4.05;2.17;;;;;;;20.12;56.38;102457.97;5225671;28;20890;-40
2022/07/11 02:28:46;;;;;;;7.10;1.75;;;;;;;20.17;56.50;102469.03;5229232;28;20434;-38
2022/07/11 02:31:19;;;;;;;6.38;2.45;;;;;;;20.21;56.60;102481.09;5226101;28;20783;-39
2022/07/11 02:33:52;;;;;;;6.60;2.20;;;;;;;20.17;56.73;102468.22;5222653;28;20414;-50
2022/07/11 02:36:25;;;;;;;11.57;2.45;;;;;;;20.17;56.87;102468.22;5226113;28;20447;-40
2022/07/11 02:38:57;;;;;;;5.07;1.73;;;;;;;20.16;56.61;102455.78;5214265;28;20526;-42
2022/07/11 02:41:32;;;;;;;6.78;2.35;;;;;;;20.23;56.54;102475.56;5228539;28;20432;-48
2022/07/11 02:44:05;;;;;;;5.15;2.10;;;;;;;20.24;56.63;102469.19;5222946;28;20447;-39
2022/07/11 02:46:37;;;;;;;7.57;2.58;;;;;;;20.17;56.72;102465.53;5214803;28;20487;-43
2022/07/11 02:49:10;;;;;;;7.20;2.63;;;;;;;20.11;56.83;102459.00;5217914;28;20787;-41
2022/07/11 02:51:42;;;;;;;4.68;2.15;;;;;;;20.15;56.94;102471.03;5216540;28;20426;-51
2022/07/11 02:54:16;;;;;;;4.30;1.83;;;;;;;20.13;56.81;102475.78;5221441;28;20833;-40
2022/07/11 02:56:50;;;;;;;2.60;1.40;;;;;;;20.13;57.08;102470.41;5210812;28;20753;-40
2022/07/11 02:59:23;;;;;;;2.72;1.73;;;;;;;20.12;56.89;102466.03;5216659;28;20872;-39
2022/07/11 03:01:56;;;;;;;2.65;1.70;;;;;;;20.14;57.05;102482.78;5221390;28;20438;-39
2022/07/11 03:04:29;;;;;;;4.40;1.45;;;;;;;20.13;56.83;102473.09;5218544;28;20433;-40
2022/07/11 03:07:01;;;;;;;4.80;1.73;;;;;;;20.08;57.01;102464.72;5220464;28;20451;-40
2022/07/11 03:09:34;;;;;;;4.55;2.15;;;;;;;20.15;56.97;102470.22;5212662;28;20879;-42
2022/07/11 03:12:09;;;;;;;3.30;2.30;;;;;;;20.15;56.91;102471.03;5210459;28;20491;-40
2022/07/11 03:14:42;;;;;;;4.35;2.15;;;;;;;20.17;56.94;102479.75;5214925;28;20421;-39
2022/07/11 03:17:15;;;;;;;4.35;2.85;;;;;;;20.20;56.95;102483.97;5211203;28;20444;-39
2022/07/11 03:19:48;;;;;;;4.47;2.80;;;;;;;20.21;56.91;102475.72;5214985;28;20419;-39
2022/07/11 03:22:21;;;;;;;5.10;2.78;;;;;;;20.12;56.68;102467.88;5210745;28;20418;-40
2022/07/11 03:24:54;;;;;;;3.45;2.28;;;;;;;20.18;56.95;102476.06;5216326;28;20800;-40
2022/07/11 03:27:28;;;;;;;3.60;2.20;;;;;;;20.23;57.05;102478.25;5221538;28;20444;-43
2022/07/11 03:30:00;;;;;;;6.47;2.95;;;;;;;20.16;57.03;102467.38;5214441;28;20423;-40
2022/07/11 03:32:33;;;;;;;5.57;2.40;;;;;;;20.18;56.99;102484.13;5213962;28;20537;-43
2022/07/11 03:37:57;;;;;;;5.97;3.13;;;;;;;20.09;57.26;102482.47;5215329;28;20443;-47
2022/07/11 03:40:30;;;;;;;6.95;2.45;;;;;;;20.15;57.36;102489.81;5219846;28;20437;-57
2022/07/11 03:43:04;;;;;;;4.85;2.33;;;;;;;20.15;57.47;102484.47;5219176;28;20412;-39
2022/07/11 03:45:37;;;;;;;4.57;2.60;;;;;;;20.16;57.34;102487.97;5219636;28;20417;-39
2022/07/11 03:48:11;;;;;;;5.30;3.17;;;;;;;20.16;57.39;102486.16;5211819;28;20403;-42
2022/07/11 03:50:43;;;;;;;7.25;3.20;;;;;;;20.16;57.34;102487.97;5218518;28;20430;-41
2022/07/11 03:53:16;;;;;;;6.68;3.05;;;;;;;20.13;57.46;102489.19;5216869;28;20435;-38
2022/07/11 03:55:49;;;;;;;5.15;2.70;;;;;;;20.16;57.52;102494.19;5209840;28;20889;-40
2022/07/11 03:58:23;;;;;;;4.53;2.20;;;;;;;20.09;57.68;102481.63;5209430;28;20432;-40
2022/07/11 04:00:55;;;;;;;6.28;2.13;;;;;;;20.12;57.76;102498.22;5210080;28;20775;-42
2022/07/11 04:03:28;;;;;;;3.50;1.60;;;;;;;20.10;57.82;102494.88;5214144;28;20412;-39
2022/07/11 04:06:01;;;;;;;6.28;2.17;;;;;;;20.08;57.81;102488.03;5221039;28;20527;-39
2022/07/11 04:08:34;;;;;;;7.40;1.90;;;;;;;20.00;58.01;102489.69;5214285;28;20433;-41
2022/07/11 04:11:06;;;;;;;4.78;1.50;;;;;;;19.99;58.07;102493.41;5214828;28;20419;-40
2022/07/11 04:13:41;;;;;;;3.75;1.50;;;;;;;20.02;58.01;102481.50;5220125;28;20768;-48
2022/07/11 04:16:13;;;;;;;4.05;1.90;;;;;;;20.04;57.88;102487.53;5211691;28;20904;-39
2022/07/11 04:18:46;;;;;;;2.30;1.48;;;;;;;20.04;57.94;102480.31;5218955;28;20426;-43
2022/07/11 04:21:19;;;;;;;2.80;1.40;;;;;;;19.95;57.96;102469.78;5212953;28;20482;-40
2022/07/11 04:23:51;;;;;;;2.53;1.30;;;;;;;20.01;57.91;102475.28;5218959;28;20820;-44
2022/07/11 04:26:24;;;;;;;2.75;1.65;;;;;;;19.98;58.10;102478.31;5219723;28;20426;-42
2022/07/11 04:28:58;;;;;;;3.55;1.73;;;;;;;19.98;58.04;102480.19;5217939;28;20507;-39
2022/07/11 04:31:31;;;;;;;3.00;1.60;;;;;;;19.98;58.20;102480.19;5214740;28;20418;-60
2022/07/11 04:34:04;;;;;;;6.13;2.03;;;;;;;19.93;58.17;102477.16;5210813;28;20427;-52
2022/07/11 04:36:36;;;;;;;4.68;1.35;;;;;;;19.91;58.07;102473.81;5216537;28;20387;-38
2022/07/11 04:39:09;;;;;;;3.20;1.55;;;;;;;19.96;57.96;102484.88;5213815;28;20888;-46
2022/07/11 04:41:42;;;;;;;2.42;1.85;;;;;;;19.74;58.03;102447.03;5216942;28;20467;-39
2022/07/11 04:44:16;;;;;;;2.92;1.90;;;;;;;20.00;57.86;102483.50;5216429;28;20398;-42
2022/07/11 04:46:49;;;;;;;3.00;2.10;;;;;;;20.02;57.80;102493.06;5188164;28;20413;-42
2022/07/11 04:49:21;;;;;;;3.15;1.80;;;;;;;19.77;57.99;102452.06;5207226;28;20508;-45
2022/07/11 04:51:54;;;;;;;4.50;1.73;;;;;;;19.94;58.12;102484.19;5215174;28;20420;-40
2022/07/11 04:54:27;;;;;;;4.35;1.77;;;;;;;19.88;58.35;102484.88;5211415;28;20420;-43
2022/07/11 04:56:59;;;;;;;2.70;1.95;;;;;;;19.90;58.11;102491.75;5221996;28;20879;-40
2022/07/11 04:59:34;;;;;;;6.50;2.20;;;;;;;19.92;58.08;102492.41;5215782;28;20421;-40
2022/07/11 05:02:07;;;;;;;4.73;1.87;;;;;;;19.93;58.26;102503.97;5210176;28;21351;-39
2022/07/11 05:04:40;;;;;;;3.72;2.42;;;;;;;19.95;57.98;102496.59;5212250;28;20400;-39
2022/07/11 05:07:13;;;;;;;2.30;1.70;;;;;;;19.97;58.29;102495.41;5216956;28;20845;-40
2022/07/11 05:09:45;;;;;;;3.85;1.85;;;;;;;19.97;58.17;102495.41;5213798;28;20451;-40
2022/07/11 05:12:20;;;;;;;2.53;1.70;;;;;;;20.00;58.35;102504.94;5206997;28;20439;-43
2022/07/11 05:14:55;;;;;;;3.83;1.60;;;;;;;19.98;58.29;102499.78;5213243;28;20498;-40
2022/07/11 05:17:27;;;;;;;2.93;1.80;;;;;;;19.95;58.21;102507.34;5212782;28;20430;-40
2022/07/11 05:20:00;;;;;;;3.92;2.40;;;;;;;19.98;58.38;102507.00;5209816;28;20447;-44
2022/07/11 05:22:33;;;;;;;5.22;1.90;;;;;;;19.97;58.36;102502.63;5208864;28;20426;-40
2022/07/11 05:25:07;;;;;;;3.20;1.88;;;;;;;19.99;58.41;102514.03;5211259;28;20446;-42
2022/07/11 05:27:39;;;;;;;3.23;1.60;;;;;;;20.00;58.39;102515.69;5208552;28;20560;-44
2022/07/11 05:30:13;;;;;;;2.60;1.58;;;;;;;20.04;58.46;102517.03;5207183;28;20414;-41
2022/07/11 05:32:46;;;;;;;2.30;1.77;;;;;;;20.05;58.27;102518.69;5213880;28;20414;-45
2022/07/11 05:35:19;;;;;;;4.53;2.03;;;;;;;20.04;58.41;102517.03;5212755;28;20418;-40
2022/07/11 05:37:52;;;;;;;4.05;1.92;;;;;;;20.00;58.54;102504.94;5222952;28;20423;-40
2022/07/11 05:40:25;;;;;;;3.10;1.63;;;;;;;20.05;58.68;102524.06;5223722;28;20411;-40
2022/07/11 05:42:57;;;;;;;2.47;1.42;;;;;;;20.07;58.58;102522.06;5222363;28;20457;-41
2022/07/11 05:45:31;;;;;;;3.13;1.63;;;;;;;20.11;58.60;102520.69;5224019;28;20569;-42
2022/07/11 05:48:05;;;;;;;3.25;1.90;;;;;;;20.14;58.75;102517.66;5226196;28;20419;-40
2022/07/11 05:50:38;;;;;;;5.70;2.13;;;;;;;20.20;58.61;102521.50;5221349;28;21356;-41
2022/07/11 05:53:11;;;;;;;4.13;1.60;;;;;;;20.23;58.54;102511.28;5227803;28;20409;-39
2022/07/11 05:55:43;;;;;;;2.85;1.67;;;;;;;20.26;58.58;102521.66;5217459;28;20412;-39
2022/07/11 05:58:16;;;;;;;2.20;1.15;;;;;;;20.26;58.84;102512.78;5225077;28;20514;-41
2022/07/11 06:00:50;;;;;;;1.95;1.40;;;;;;;20.34;58.88;102517.25;5220752;28;20847;-39
2022/07/11 06:03:23;;;;;;;2.42;1.50;;;;;;;20.42;58.75;102517.25;5216900;28;20951;-44
2022/07/11 06:05:55;;;;;;;2.20;1.45;;;;;;;20.48;58.52;102520.06;5224279;28;20510;-39
2022/07/11 06:08:43;;;;;;;2.10;1.50;;;;;;;20.54;58.42;102521.25;5223934;28;21004;-41
2022/07/11 06:11:17;;;;;;;3.40;1.90;;;;;;;20.52;58.53;102517.88;5213324;28;20476;-39
2022/07/11 06:13:49;;;;;;;3.65;1.85;;;;;;;20.40;58.54;102527.28;5223299;28;20395;-41
2022/07/11 06:16:24;;;;;;;1.75;1.30;;;;;;;20.39;58.54;102525.63;5224357;28;20507;-41
2022/07/11 06:18:57;;;;;;;2.17;1.30;;;;;;;20.36;58.56;102525.97;5222935;28;20808;-43
2022/07/11 06:21:29;;;;;;;4.15;1.90;;;;;;;20.33;58.53;102515.59;5224939;28;20469;-40
2022/07/11 06:24:02;;;;;;;2.72;1.30;;;;;;;20.33;58.67;102518.28;5211158;28;20749;-47
2022/07/11 06:26:35;;;;;;;1.65;1.50;;;;;;;20.36;58.56;102512.56;5190698;28;20402;-41
2022/07/11 06:29:08;;;;;;;2.92;1.27;;;;;;;20.43;58.50;102513.53;5221821;28;20517;-40
2022/07/11 06:31:42;;;;;;;3.17;1.10;;;;;;;20.53;58.68;102524.91;5225000;28;20422;-41
2022/07/11 06:34:15;;;;;;;1.95;0.80;;;;;;;20.65;58.37;102520.00;5211357;28;20473;-40
2022/07/11 06:36:47;;;;;;;1.70;0.80;;;;;;;20.93;58.39;102523.03;5200551;28;20536;-40
2022/07/11 06:39:20;;;;;;;1.33;0.73;;;;;;;21.15;58.17;102532.97;5217086;28;20416;-40
2022/07/11 06:41:53;;;;;;;1.50;0.60;;;;;;;21.33;57.91;102529.13;5211854;28;20462;-52
2022/07/11 06:44:25;;;;;;;2.70;0.95;;;;;;;21.39;57.45;102518.53;5217009;28;20905;-41
2022/07/11 06:46:59;;;;;;;1.80;0.90;;;;;;;21.42;57.40;102517.34;5219840;28;20405;-46
2022/07/11 06:49:32;;;;;;;0.70;0.70;;;;;;;21.51;57.22;102528.88;5208984;28;20473;-40
2022/07/11 06:52:05;;;;;;;1.17;0.70;;;;;;;21.58;57.13;102524.44;5222306;28;20809;-39
2022/07/11 06:54:38;;;;;;;1.90;0.68;;;;;;;21.62;56.92;102531.13;5226911;28;20445;-39
2022/07/11 06:57:11;;;;;;;2.70;0.80;;;;;;;21.61;56.73;102542.88;5226241;28;20781;-40
2022/07/11 06:59:43;;;;;;;3.50;0.97;;;;;;;21.61;56.55;102540.19;5231039;27;20541;-40
2022/07/11 07:02:17;;;;;;;0.80;0.50;;;;;;;21.51;56.46;102532.38;5202388;28;20423;-40
2022/07/11 07:04:50;;;;;;;1.52;0.60;;;;;;;21.55;56.30;102541.75;5226728;28;20487;-39
2022/07/11 07:07:23;;;;;;;0.70;0.47;;;;;;;21.57;56.26;102542.41;5228624;28;20436;-40
2022/07/11 07:09:57;;;;;;;0.73;0.68;;;;;;;21.51;56.38;102543.13;5227970;28;20453;-40
2022/07/11 07:12:29;;;;;;;1.80;1.30;;;;;;;21.54;56.43;102541.94;5227386;28;20820;-40
2022/07/11 07:15:02;;;;;;;0.68;0.50;;;;;;;21.61;56.07;102538.34;5229706;28;20455;-40
2022/07/11 07:17:36;;;;;;;1.48;0.65;;;;;;;21.67;55.96;102530.56;5220257;28;20428;-44
2022/07/11 07:20:12;;;;;;;1.02;0.80;;;;;;;21.80;55.63;102553.16;5226967;28;20891;-40
2022/07/11 07:22:44;;;;;;;0.60;0.60;;;;;;;21.71;55.63;102550.69;5228571;28;20460;-39
2022/07/11 07:25:17;;;;;;;2.80;0.60;;;;;;;21.76;55.80;102548.31;5225151;28;20457;-41
2022/07/11 07:27:50;;;;;;;1.00;0.63;;;;;;;21.92;55.46;102534.69;5226682;28;20906;-39
2022/07/11 07:30:22;;;;;;;1.38;0.73;;;;;;;22.23;55.03;102544.47;5228064;28;20456;-39
2022/07/11 07:32:56;;;;;;;1.95;1.25;;;;;;;22.37;54.95;102549.03;5226822;28;20412;-44
2022/07/11 07:35:29;;;;;;;4.68;1.80;;;;;;;22.45;54.60;102538.19;5224371;28;20422;-40
2022/07/11 07:38:02;;;;;;;2.30;1.38;;;;;;;22.45;54.61;102535.50;5228926;28;20896;-42
2022/07/11 07:40:35;;;;;;;1.88;1.42;;;;;;;22.24;54.78;102524.66;5228318;28;20415;-38
2022/07/11 07:43:08;;;;;;;2.53;1.50;;;;;;;22.21;54.85;102543.84;5218529;28;20414;-40
2022/07/11 07:45:41;;;;;;;3.20;2.33;;;;;;;22.20;54.97;102552.94;5219841;28;20757;-39
2022/07/11 07:48:15;;;;;;;3.80;2.22;;;;;;;22.20;54.93;102544.84;5226830;28;20522;-43
2022/07/11 07:50:48;;;;;;;2.50;1.33;;;;;;;22.32;54.77;102551.44;5222375;28;20506;-39
2022/07/11 07:53:21;;;;;;;2.83;1.65;;;;;;;22.31;54.96;102550.63;5225197;28;20768;-49
2022/07/11 07:55:53;;;;;;;3.43;1.57;;;;;;;22.36;54.61;102546.50;5215829;28;21015;-40
2022/07/11 07:58:26;;;;;;;4.70;1.70;;;;;;;22.28;54.74;102556.38;5209310;28;20427;-39
2022/07/11 08:03:51;;;;;;;2.20;1.30;;;;;;;22.16;54.89;102530.06;5223432;28;20480;-39
2022/07/11 08:06:24;;;;;;;0.82;0.60;;;;;;;22.29;55.28;102549.97;5213858;28;20832;-43
2022/07/11 08:08:56;;;;;;;1.20;0.80;;;;;;;22.39;55.10;102552.38;5208986;28;20424;-39
2022/07/11 08:11:30;;;;;;;0.95;0.70;;;;;;;22.55;54.86;102554.03;5212840;28;20908;-48
2022/07/11 08:14:04;;;;;;;0.60;0.60;;;;;;;22.71;54.33;102551.13;5209980;28;20429;-40
2022/07/11 08:16:38;;;;;;;0.80;0.70;;;;;;;22.72;54.19;102547.41;5220837;28;20502;-39
2022/07/11 08:19:12;;;;;;;0.93;0.80;;;;;;;22.73;54.05;102548.22;5212336;28;20422;-43
2022/07/11 08:21:45;;;;;;;0.85;0.65;;;;;;;22.68;53.97;102547.97;5208050;28;20420;-40
2022/07/11 08:24:18;;;;;;;0.90;0.70;;;;;;;22.64;54.04;102549.38;5202339;28;20432;-46
2022/07/11 08:26:51;;;;;;;0.70;0.52;;;;;;;22.59;53.84;102551.81;5211102;28;20421;-45
2022/07/11 08:29:23;;;;;;;1.23;0.60;;;;;;;22.61;53.72;102561.38;5205406;28;20950;-39
2022/07/11 08:31:59;;;;;;;1.08;0.98;;;;;;;22.63;53.77;102563.88;5208730;28;20428;-40
2022/07/11 08:34:33;;;;;;;3.10;0.40;;;;;;;22.64;53.50;102561.00;5207760;28;20472;-50
2022/07/11 08:37:06;;;;;;;1.80;0.82;;;;;;;22.64;53.43;102554.75;5209386;28;20590;-41
2022/07/11 08:39:38;;;;;;;1.10;0.80;;;;;;;22.74;53.24;102552.63;5206426;28;20414;-41
2022/07/11 08:42:12;;;;;;;2.43;0.90;;;;;;;22.83;53.16;102553.34;5187602;28;20409;-44
2022/07/11 08:44:44;;;;;;;1.63;0.88;;;;;;;22.83;53.09;102558.72;5212105;28;20413;-49
2022/07/11 08:47:17;;;;;;;1.23;0.90;;;;;;;22.88;52.88;102551.72;5202941;28;20416;-40
2022/07/11 08:49:53;;;;;;;1.00;0.88;;;;;;;22.98;52.69;102557.69;5210234;28;20409;-40
2022/07/11 08:52:27;;;;;;;1.65;0.70;;;;;;;22.98;52.64;102538.84;5192599;28;20421;-41
2022/07/11 08:54:59;;;;;;;3.58;1.23;;;;;;;23.09;52.50;102560.91;5204832;28;20473;-40
2022/07/11 08:57:33;;;;;;;2.15;1.13;;;;;;;23.13;52.46;102552.25;5207900;28;20415;-43
2022/07/11 09:00:09;;;;;;;1.85;1.25;;;;;;;23.19;52.23;102553.34;5201921;28;20753;-41
2022/07/11 09:02:44;;;;;;;5.68;1.25;;;;;;;23.11;52.22;102550.78;5208896;28;20408;-40
2022/07/11 09:05:18;;;;;;;0.90;0.73;;;;;;;23.02;52.50;102545.50;5220770;28;20410;-40
2022/07/11 09:07:51;;;;;;;1.10;0.70;;;;;;;22.96;52.65;102553.53;5208589;28;20872;-39
2022/07/11 09:10:25;;;;;;;2.08;1.20;;;;;;;23.04;52.36;102542.59;5202596;28;20415;-39
2022/07/11 09:13:02;;;;;;;1.05;0.95;;;;;;;22.90;52.05;102517.34;5204463;28;20417;-40
2022/07/11 09:15:38;;;;;;;1.30;1.20;;;;;;;23.24;52.05;102540.13;5213860;28;20436;-43
2022/07/11 09:18:36;;;;;;;1.48;1.10;;;;;;;23.43;51.79;102539.47;5213661;28;20745;-39
2022/07/11 09:27:01;;;;;;;1.10;0.70;;;;;;;24.05;50.88;102521.69;5165618;28;20420;-40
2022/07/11 09:29:33;;;;;;;2.80;0.70;;;;;;;24.12;50.88;102536.06;5202540;28;20776;-44
2022/07/11 09:32:06;;;;;;;1.15;0.68;;;;;;;24.18;50.64;102526.34;5206025;28;20420;-47
2022/07/11 09:34:39;;;;;;;0.95;0.73;;;;;;;24.32;50.47;102532.66;5210491;28;20424;-39
2022/07/11 09:37:13;;;;;;;0.93;0.93;;;;;;;24.46;50.21;102538.97;5209054;28;20413;-41
2022/07/11 09:39:48;;;;;;;0.95;0.82;;;;;;;24.57;49.90;102536.53;5209166;28;20425;-51
2022/07/11 09:42:21;;;;;;;1.40;0.68;;;;;;;24.52;50.09;102532.75;5204698;28;20899;-40
2022/07/11 09:45:12;;;;;;;1.52;0.88;;;;;;;24.65;49.78;102532.81;5213101;28;20976;-43
2022/07/11 09:47:47;;;;;;;0.55;0.55;;;;;;;24.76;49.58;102534.09;5212417;28;20438;-40
2022/07/11 09:50:21;;;;;;;1.40;1.08;;;;;;;24.81;49.46;102543.28;5205813;28;20913;-42
2022/07/11 09:53:03;;;;;;;2.10;1.38;;;;;;;24.81;49.33;102539.75;5210670;28;20505;-40
2022/07/11 09:55:38;;;;;;;1.67;1.48;;;;;;;24.87;49.00;102540.78;5207304;28;20432;-43
2022/07/11 09:58:13;;;;;;;1.13;1.05;;;;;;;25.01;48.89;102540.59;5211676;28;20922;-44
2022/07/11 10:00:46;;;;;;;2.55;1.30;;;;;;;25.14;48.60;102547.94;5209970;28;20431;-41
2022/07/11 10:03:25;;;;;;;1.73;1.40;;;;;;;25.33;48.29;102535.47;5207660;28;20484;-42
2022/07/11 10:05:57;;;;;;;0.90;0.70;;;;;;;25.44;48.17;102544.88;5211823;28;20751;-47
2022/07/11 10:08:33;;;;;;;3.50;1.00;;;;;;;25.47;47.96;102533.63;5212923;28;20420;-43
2022/07/11 10:11:06;;;;;;;1.77;0.50;;;;;;;25.47;47.98;102545.28;5212558;28;20853;-41
2022/07/11 10:13:39;;;;;;;2.30;0.80;;;;;;;25.28;48.20;102544.22;5221083;28;20407;-40
2022/07/11 10:16:31;;;;;;;1.80;0.90;;;;;;;25.18;48.23;102548.34;5226211;28;20765;-42
2022/07/11 10:19:29;;;;;;;1.65;1.55;;;;;;;25.12;48.07;102544.59;5219331;28;20457;-54
2022/07/11 10:22:15;;;;;;;1.33;1.23;;;;;;;25.03;48.25;102540.41;5219402;28;20771;-46
2022/07/11 10:25:03;;;;;;;1.17;1.07;;;;;;;25.05;48.06;102543.72;5214905;28;20416;-44
2022/07/11 10:27:40;;;;;;;2.45;0.63;;;;;;;25.12;48.07;102544.59;5219998;28;20926;-40
2022/07/11 10:30:13;;;;;;;1.20;0.70;;;;;;;25.23;47.97;102545.88;5222163;28;20470;-41
2022/07/11 10:33:08;;;;;;;2.00;0.55;;;;;;;25.35;47.69;102536.13;5218208;28;20889;-43
2022/07/11 10:35:46;;;;;;;0.55;0.50;;;;;;;25.29;47.64;102540.47;5216424;28;20430;-41
2022/07/11 10:38:19;;;;;;;2.38;1.42;;;;;;;25.42;47.57;102542.34;5215120;28;20423;-40
2022/07/11 10:40:55;;;;;;;3.67;2.33;;;;;;;25.58;47.31;102538.44;5217533;28;20454;-40
2022/07/11 10:43:40;;;;;;;2.90;1.70;;;;;;;25.69;47.21;102542.34;5222361;28;20897;-40
2022/07/11 10:46:20;;;;;;;2.83;2.63;;;;;;;25.88;46.83;102538.00;5220682;28;20486;-39
2022/07/11 10:48:59;;;;;;;4.18;2.85;;;;;;;26.06;46.51;102548.16;5218562;28;20991;-41
2022/07/11 10:51:47;;;;;;;3.00;2.60;;;;;;;26.21;46.17;102541.47;5221418;28;20411;-45
2022/07/11 10:54:33;;;;;;;1.65;1.25;;;;;;;26.37;46.11;102550.16;5217719;28;20558;-48
2022/07/11 10:57:18;;;;;;;1.80;0.90;;;;;;;26.33;46.10;102551.66;5220368;28;20777;-42
2022/07/11 10:59:59;;;;;;;1.55;1.13;;;;;;;26.46;45.90;102557.00;5216283;28;20422;-40
2022/07/11 11:02:32;;;;;;;0.60;0.60;;;;;;;26.64;45.54;102554.47;5223243;28;20920;-40
2022/07/11 11:05:06;;;;;;;0.82;0.68;;;;;;;26.73;45.45;102546.06;5217774;28;20487;-41
2022/07/11 11:07:41;;;;;;;0.63;0.50;;;;;;;26.66;45.52;102546.97;5217557;28;20754;-41
2022/07/11 11:10:49;;;;;;;0.55;0.47;;;;;;;26.32;46.01;102560.78;5217210;28;20972;-39
2022/07/11 11:13:23;;;;;;;1.00;0.50;;;;;;;26.31;45.81;102548.31;5214091;28;20755;-41
2022/07/11 11:15:57;;;;;;;0.40;0.40;;;;;;;26.16;45.97;102548.56;5216568;28;20497;-41
2022/07/11 11:18:43;;;;;;;0.50;0.50;;;;;;;25.96;46.11;102552.16;5216444;28;20459;-49
2022/07/11 11:21:24;;;;;;;0.57;0.50;;;;;;;26.03;46.01;102544.00;5211717;28;20438;-40
2022/07/11 11:24:09;;;;;;;0.60;0.60;;;;;;;26.12;45.85;102529.19;5213273;28;20442;-40
2022/07/11 11:27:02;;;;;;;1.30;0.60;;;;;;;26.30;45.57;102530.41;5214819;28;20419;-43
2022/07/11 11:29:36;;;;;;;1.50;0.77;;;;;;;26.12;45.72;102540.03;5209522;28;20415;-41
2022/07/11 11:32:10;;;;;;;0.75;0.60;;;;;;;25.96;45.82;102545.91;5212866;28;20421;-42
2022/07/11 11:34:44;;;;;;;1.05;0.70;;;;;;;26.04;45.77;102548.38;5220342;28;20412;-44
2022/07/11 11:37:18;;;;;;;1.10;0.60;;;;;;;25.86;45.93;102550.91;5218251;28;20892;-40
2022/07/11 11:40:00;;;;;;;0.60;0.50;;;;;;;25.59;46.36;102544.66;5208974;28;20410;-41
2022/07/11 11:42:32;;;;;;;2.75;1.83;;;;;;;25.51;46.41;102549.22;5218066;28;20442;-41
2022/07/11 11:45:11;;;;;;;1.23;0.77;;;;;;;25.47;46.36;102541.75;5219086;28;20408;-62
2022/07/11 11:47:49;;;;;;;1.17;0.63;;;;;;;25.71;46.10;102545.69;5216907;28;20752;-46
2022/07/11 11:50:22;;;;;;;0.50;0.40;;;;;;;25.94;45.84;102545.28;5211147;28;20783;-39
2022/07/11 11:52:55;;;;;;;0.73;0.50;;;;;;;26.21;45.44;102549.59;5211559;28;20556;-41
2022/07/11 11:55:27;;;;;;;1.30;0.55;;;;;;;26.36;45.34;102556.63;5213964;28;20424;-48
2022/07/11 11:58:00;;;;;;;0.80;0.70;;;;;;;26.26;45.37;102548.09;5218313;28;20421;-45
2022/07/11 12:00:34;;;;;;;0.90;0.80;;;;;;;26.14;45.50;102537.94;5222028;28;20791;-40
2022/07/11 12:03:07;;;;;;;3.33;0.90;;;;;;;25.93;45.75;102533.63;5210157;28;20476;-42
2022/07/11 12:05:40;;;;;;;1.15;1.05;;;;;;;26.24;45.41;102536.69;5215671;28;20785;-40
2022/07/11 12:08:27;;;;;;;1.17;0.73;;;;;;;26.75;44.73;102533.13;5212588;28;20497;-40